createdAt,value
2017-11-18T00:02:21.443Z,1.40
2017-11-18T00:04:47.439Z,1.30
2017-11-18T00:07:13.405Z,1.30
2017-11-18T00:09:40.891Z,1.20
2017-11-18T00:12:07.588Z,1.30
2017-11-18T00:14:33.539Z,1.30
2017-11-18T00:16:59.539Z,1.30
2017-11-18T00:19:25.516Z,1.40
2017-11-18T00:21:58.397Z,1.40
2017-11-18T00:24:25.319Z,1.50
2017-11-18T00:26:52.034Z,1.50
2017-11-18T00:29:17.978Z,1.50
2017-11-18T00:31:43.967Z,1.40
2017-11-18T00:34:09.916Z,1.40
2017-11-18T00:36:35.901Z,1.40
2017-11-18T00:39:02.635Z,1.40
2017-11-18T00:41:28.599Z,1.30
2017-11-18T00:43:55.335Z,1.30
2017-11-18T00:46:21.319Z,1.20
2017-11-18T00:48:47.275Z,1.20
2017-11-18T00:51:13.260Z,1.30
2017-11-18T00:53:39.956Z,1.40
2017-11-18T00:56:05.988Z,1.40
2017-11-18T00:58:31.936Z,1.40
2017-11-18T01:00:57.899Z,1.30
2017-11-18T01:03:23.891Z,1.20
2017-11-18T01:05:49.879Z,1.40
2017-11-18T01:08:17.311Z,1.40
2017-11-18T01:10:43.260Z,1.40
2017-11-18T01:13:09.269Z,1.40
2017-11-18T01:15:35.210Z,1.40
2017-11-18T01:18:01.209Z,1.40
2017-11-18T01:20:42.879Z,1.30
2017-11-18T01:23:08.984Z,1.30
2017-11-18T01:25:34.935Z,1.30
2017-11-18T01:28:00.882Z,1.30
2017-11-18T01:30:26.876Z,1.30
2017-11-18T01:32:52.855Z,1.30
2017-11-18T01:35:18.849Z,1.30
2017-11-18T01:37:44.791Z,1.30
2017-11-18T01:40:10.753Z,1.30
2017-11-18T01:42:36.846Z,1.50
2017-11-18T01:45:03.536Z,1.50
2017-11-18T01:47:29.519Z,1.50
2017-11-18T01:49:55.470Z,1.50
2017-11-18T01:52:22.205Z,1.50
2017-11-18T01:54:48.931Z,1.50
2017-11-18T01:57:14.907Z,1.50
2017-11-18T01:59:41.640Z,1.50
2017-11-18T02:02:09.546Z,1.50
2017-11-18T02:04:43.309Z,1.40
2017-11-18T02:07:09.300Z,1.40
2017-11-18T02:09:36.049Z,1.50
2017-11-18T02:12:02.767Z,1.70
2017-11-18T02:14:28.708Z,1.60
2017-11-18T02:16:54.723Z,1.60
2017-11-18T02:19:20.664Z,1.60
2017-11-18T02:21:46.647Z,1.60
2017-11-18T02:24:13.355Z,1.60
2017-11-18T02:26:39.295Z,1.50
2017-11-18T02:29:05.270Z,1.70
2017-11-18T02:31:32.007Z,1.70
2017-11-18T02:33:57.990Z,1.70
2017-11-18T02:36:23.938Z,1.80
2017-11-18T02:38:49.918Z,1.80
2017-11-18T02:41:15.859Z,1.80
2017-11-18T02:43:42.584Z,1.80
2017-11-18T02:46:08.574Z,1.80
2017-11-18T02:48:34.528Z,1.90
2017-11-18T02:51:00.522Z,1.80
2017-11-18T02:53:27.212Z,1.90
2017-11-18T02:55:53.205Z,1.80
2017-11-18T02:58:19.188Z,1.80
2017-11-18T03:00:45.147Z,1.90
2017-11-18T03:03:11.095Z,1.80
2017-11-18T03:05:37.079Z,1.80
2017-11-18T03:08:03.022Z,1.90
2017-11-18T03:10:29.010Z,1.80
2017-11-18T03:12:55.000Z,1.80
2017-11-18T03:15:20.972Z,1.80
2017-11-18T03:17:46.947Z,1.80
2017-11-18T03:20:12.883Z,1.90
2017-11-18T03:22:38.859Z,1.90
2017-11-18T03:25:04.799Z,2.00
2017-11-18T03:27:30.787Z,2.10
2017-11-18T03:29:57.480Z,2.00
2017-11-18T03:32:23.426Z,2.00
2017-11-18T03:34:49.396Z,2.00
2017-11-18T03:37:16.087Z,2.10
2017-11-18T03:39:42.069Z,2.10
2017-11-18T03:42:08.802Z,2.20
2017-11-18T03:44:34.742Z,2.20
2017-11-18T03:47:00.715Z,2.00
2017-11-18T03:49:27.409Z,2.10
2017-11-18T03:51:53.397Z,2.10
2017-11-18T03:54:20.143Z,2.20
2017-11-18T03:56:46.084Z,2.20
2017-11-18T03:59:12.770Z,2.00
2017-11-18T04:01:38.735Z,2.00
2017-11-18T04:04:04.675Z,2.00
2017-11-18T04:06:30.644Z,2.00
2017-11-18T04:08:57.342Z,2.00
2017-11-18T04:11:23.329Z,1.90
2017-11-18T04:13:50.011Z,2.00
2017-11-18T04:16:15.996Z,1.90
2017-11-18T04:18:41.947Z,1.90
2017-11-18T04:21:07.890Z,1.90
2017-11-18T04:23:34.626Z,2.00
2017-11-18T04:26:00.571Z,2.00
2017-11-18T04:28:26.514Z,2.00
2017-11-18T04:30:53.239Z,2.10
2017-11-18T04:33:19.176Z,2.10
2017-11-18T04:35:45.156Z,2.00
2017-11-18T04:38:11.099Z,2.00
2017-11-18T04:40:37.071Z,2.10
2017-11-18T04:43:03.047Z,2.20
2017-11-18T04:45:29.760Z,2.10
2017-11-18T04:47:55.710Z,2.10
2017-11-18T04:50:21.682Z,2.10
2017-11-18T04:52:48.363Z,2.10
2017-11-18T04:55:14.391Z,2.20
2017-11-18T04:57:40.335Z,2.10
2017-11-18T05:00:06.302Z,2.10
2017-11-18T05:02:32.242Z,2.00
2017-11-18T05:04:58.248Z,2.00
2017-11-18T05:07:24.197Z,2.00
2017-11-18T05:09:50.139Z,2.00
2017-11-18T05:12:16.111Z,1.90
2017-11-18T05:14:42.824Z,1.80
2017-11-18T05:17:08.813Z,1.80
2017-11-18T05:19:34.804Z,1.70
2017-11-18T05:22:00.775Z,1.70
2017-11-18T05:24:27.499Z,1.60
2017-11-18T05:26:53.454Z,1.60
2017-11-18T05:29:20.159Z,1.50
2017-11-18T05:31:46.094Z,1.50
2017-11-18T05:34:12.098Z,1.50
2017-11-18T05:36:38.035Z,1.50
2017-11-18T05:39:04.011Z,1.40
2017-11-18T05:41:29.964Z,1.30
2017-11-18T05:43:55.948Z,1.40
2017-11-18T05:46:21.907Z,1.20
2017-11-18T05:48:47.882Z,1.10
2017-11-18T05:51:13.823Z,1.20
2017-11-18T05:53:39.795Z,1.10
2017-11-18T05:56:05.777Z,1.10
2017-11-18T05:58:31.779Z,1.10
2017-11-18T06:00:57.752Z,1.00
2017-11-18T06:03:23.692Z,1.00
2017-11-18T06:05:50.419Z,0.90
2017-11-18T06:08:16.367Z,0.90
2017-11-18T06:10:42.332Z,0.90
2017-11-18T06:13:09.063Z,0.80
2017-11-18T06:15:35.004Z,0.80
2017-11-18T06:18:00.995Z,0.80
2017-11-18T06:20:27.321Z,0.80
2017-11-18T06:22:53.262Z,0.80
2017-11-18T06:25:19.219Z,1.00
2017-11-18T06:27:45.196Z,0.90
2017-11-18T06:30:11.897Z,0.80
2017-11-18T06:32:37.891Z,0.80
2017-11-18T06:35:04.575Z,0.70
2017-11-18T06:37:30.514Z,0.70
2017-11-18T06:39:56.487Z,0.70
2017-11-18T06:42:22.431Z,0.60
2017-11-18T06:44:48.419Z,0.80
2017-11-18T06:47:14.367Z,0.80
2017-11-18T06:49:40.351Z,0.90
2017-11-18T06:52:07.056Z,1.00
2017-11-18T06:54:33.043Z,1.00
2017-11-18T06:56:59.771Z,1.30
2017-11-18T06:59:25.715Z,1.30
2017-11-18T07:01:51.703Z,1.40
2017-11-18T07:04:17.685Z,1.40
2017-11-18T07:06:43.675Z,1.50
2017-11-18T07:09:09.623Z,1.50
2017-11-18T07:11:35.567Z,1.50
2017-11-18T07:14:01.547Z,1.70
2017-11-18T07:16:28.291Z,1.60
2017-11-18T07:18:54.258Z,1.50
2017-11-18T07:21:20.269Z,1.60
2017-11-18T07:23:47.043Z,1.70
2017-11-18T07:26:13.719Z,1.70
2017-11-18T07:28:39.672Z,1.70
2017-11-18T07:31:05.751Z,1.80
2017-11-18T07:33:32.446Z,1.70
2017-11-18T07:35:58.426Z,1.70
2017-11-18T07:38:24.406Z,1.80
2017-11-18T07:40:50.351Z,1.70
2017-11-18T07:43:16.333Z,1.80
2017-11-18T07:45:42.324Z,1.90
2017-11-18T07:48:08.263Z,2.00
2017-11-18T07:50:34.203Z,2.10
2017-11-18T07:53:00.195Z,2.20
2017-11-18T07:55:26.902Z,2.40
2017-11-18T07:57:52.894Z,2.40
2017-11-18T08:00:18.845Z,2.60
2017-11-18T08:02:44.899Z,2.70
2017-11-18T08:05:11.582Z,2.70
2017-11-18T08:07:37.527Z,2.70
2017-11-18T08:10:03.544Z,2.70
2017-11-18T08:12:29.535Z,2.70
2017-11-18T08:14:55.516Z,2.80
2017-11-18T08:17:22.245Z,2.90
2017-11-18T08:19:48.982Z,3.00
2017-11-18T08:22:14.964Z,3.10
2017-11-18T08:24:40.907Z,3.20
2017-11-18T08:27:06.907Z,3.30
2017-11-18T08:29:32.855Z,3.30
2017-11-18T08:31:58.810Z,3.50
2017-11-18T08:34:26.279Z,3.60
2017-11-18T08:36:52.234Z,3.60
2017-11-18T08:39:18.958Z,3.60
2017-11-18T08:41:44.920Z,3.60
2017-11-18T08:44:11.651Z,3.80
2017-11-18T08:46:37.599Z,3.80
2017-11-18T08:49:03.546Z,3.80
2017-11-18T08:51:30.281Z,4.10
2017-11-18T08:53:56.243Z,4.00
2017-11-18T08:56:23.004Z,4.20
2017-11-18T08:58:49.014Z,4.20
2017-11-18T09:01:15.011Z,4.30
2017-11-18T09:03:40.955Z,4.30
2017-11-18T09:06:07.011Z,4.50
2017-11-18T09:08:33.750Z,4.70
2017-11-18T09:10:59.715Z,4.70
2017-11-18T09:13:25.683Z,4.80
2017-11-18T09:15:51.659Z,4.90
2017-11-18T09:18:17.649Z,4.90
2017-11-18T09:20:43.595Z,4.90
2017-11-18T09:23:09.539Z,4.90
2017-11-18T09:25:35.525Z,5.10
2017-11-18T09:28:02.260Z,5.60
2017-11-18T09:30:28.207Z,5.50
2017-11-18T09:32:54.219Z,5.60
2017-11-18T09:35:20.200Z,5.60
2017-11-18T09:37:46.885Z,5.70
2017-11-18T09:40:13.611Z,5.80
2017-11-18T09:42:40.441Z,5.90
2017-11-18T09:45:06.413Z,5.90
2017-11-18T09:47:32.444Z,5.90
2017-11-18T09:49:58.392Z,6.00
2017-11-18T09:52:24.465Z,6.10
2017-11-18T09:54:50.435Z,6.00
2017-11-18T09:57:16.410Z,6.20
2017-11-18T09:59:42.380Z,6.20
2017-11-18T10:02:08.351Z,6.20
2017-11-18T10:04:35.115Z,6.30
2017-11-18T10:07:01.051Z,6.30
2017-11-18T10:09:27.027Z,6.40
2017-11-18T10:11:52.972Z,6.30
2017-11-18T10:14:18.952Z,6.30
2017-11-18T10:19:38.289Z,6.50
2017-11-18T10:22:04.583Z,6.40
2017-11-18T10:24:30.724Z,6.40
2017-11-18T10:26:56.820Z,6.50
2017-11-18T10:29:24.525Z,6.60
2017-11-18T10:31:53.233Z,6.60
2017-11-18T10:34:19.281Z,6.50
2017-11-18T10:36:45.353Z,6.40
2017-11-18T10:39:11.462Z,6.40
2017-11-18T10:41:37.548Z,6.40
2017-11-18T10:44:03.629Z,6.30
2017-11-18T10:46:29.714Z,6.30
2017-11-18T10:48:55.757Z,6.30
2017-11-18T10:51:21.949Z,6.30
2017-11-18T10:53:48.027Z,6.40
2017-11-18T10:56:14.114Z,6.40
2017-11-18T10:58:40.152Z,6.70
2017-11-18T11:01:06.258Z,6.50
2017-11-18T11:03:32.330Z,6.40
2017-11-18T11:05:58.556Z,6.60
2017-11-18T11:08:24.594Z,6.50
2017-11-18T11:10:50.700Z,6.40
2017-11-18T11:13:16.834Z,6.40
2017-11-18T11:15:42.925Z,6.40
2017-11-18T11:18:08.997Z,6.60
2017-11-18T11:20:35.070Z,6.50
2017-11-18T11:23:01.117Z,6.30
2017-11-18T11:25:27.196Z,6.30
2017-11-18T11:27:54.008Z,6.20
2017-11-18T11:30:20.061Z,6.20
2017-11-18T11:32:46.893Z,6.40
2017-11-18T11:35:12.990Z,6.40
2017-11-18T11:37:39.050Z,6.30
2017-11-18T11:40:05.079Z,6.30
2017-11-18T11:42:31.144Z,6.50
2017-11-18T11:44:57.160Z,6.30
2017-11-18T11:47:23.248Z,6.30
2017-11-18T11:49:49.324Z,6.20
2017-11-18T11:52:15.395Z,6.30
2017-11-18T11:54:41.434Z,6.30
2017-11-18T11:57:08.273Z,6.20
2017-11-18T11:59:36.200Z,6.10
2017-11-18T12:02:02.298Z,6.10
2017-11-18T12:04:28.344Z,6.00
2017-11-18T12:06:54.433Z,6.10
2017-11-18T12:09:21.273Z,6.10
2017-11-18T12:11:48.090Z,6.20
2017-11-18T12:14:14.222Z,6.10
2017-11-18T12:16:40.308Z,6.00
2017-11-18T12:19:06.352Z,6.00
2017-11-18T12:21:32.444Z,5.90
2017-11-18T12:23:58.489Z,5.90
2017-11-18T12:26:24.627Z,5.80
2017-11-18T12:28:50.696Z,5.80
2017-11-18T12:31:16.822Z,5.90
2017-11-18T12:33:43.618Z,5.90
2017-11-18T12:36:09.667Z,5.90
2017-11-18T12:38:35.765Z,5.90
2017-11-18T12:41:01.835Z,5.80
2017-11-18T12:43:28.661Z,5.80
2017-11-18T12:45:54.702Z,5.80
2017-11-18T12:48:20.809Z,5.80
2017-11-18T12:50:46.886Z,5.90
2017-11-18T12:53:13.123Z,5.90
2017-11-18T12:55:39.250Z,5.80
2017-11-18T12:58:05.338Z,5.80
2017-11-18T13:00:32.121Z,5.90
2017-11-18T13:02:58.166Z,5.90
2017-11-18T13:05:24.238Z,5.90
2017-11-18T13:07:51.076Z,6.00
2017-11-18T13:10:17.129Z,5.90
2017-11-18T13:12:43.200Z,5.80
2017-11-18T13:15:09.283Z,5.80
2017-11-18T13:17:35.415Z,5.80
2017-11-18T13:20:01.542Z,5.80
2017-11-18T13:22:27.594Z,6.00
2017-11-18T13:24:53.700Z,5.90
2017-11-18T13:27:19.825Z,5.90
2017-11-18T13:29:46.354Z,6.00
2017-11-18T13:32:12.413Z,5.80
2017-11-18T13:34:38.551Z,5.90
2017-11-18T13:37:04.749Z,5.90
2017-11-18T13:39:30.797Z,5.80
2017-11-18T13:41:56.842Z,5.80
2017-11-18T13:44:22.938Z,5.90
2017-11-18T13:46:49.459Z,5.90
2017-11-18T13:49:15.596Z,5.80
2017-11-18T13:51:41.723Z,5.80
2017-11-18T13:54:07.780Z,5.80
2017-11-18T13:56:33.823Z,5.80
2017-11-18T13:58:59.901Z,5.90
2017-11-18T14:01:25.996Z,5.90
2017-11-18T14:03:52.102Z,6.00
2017-11-18T14:06:18.217Z,5.90
2017-11-18T14:08:44.362Z,5.80
2017-11-18T14:11:11.145Z,5.80
2017-11-18T14:13:37.237Z,5.80
2017-11-18T14:16:04.121Z,5.90
2017-11-18T14:18:30.178Z,5.90
2017-11-18T14:20:56.272Z,5.90
2017-11-18T14:23:22.325Z,5.90
2017-11-18T14:25:48.391Z,5.80
2017-11-18T14:28:14.551Z,5.90
2017-11-18T14:30:40.586Z,5.90
2017-11-18T14:33:06.694Z,5.90
2017-11-18T14:35:32.804Z,6.00
2017-11-18T14:37:58.986Z,5.90
2017-11-18T14:40:25.085Z,6.00
2017-11-18T14:42:51.137Z,6.10
2017-11-18T14:45:17.265Z,6.00
2017-11-18T14:47:43.345Z,6.00
2017-11-18T14:50:09.414Z,5.80
2017-11-18T14:52:35.523Z,5.90
2017-11-18T14:55:01.599Z,5.90
2017-11-18T14:57:28.398Z,5.90
2017-11-18T15:01:40.185Z,5.90
2017-11-18T15:04:06.852Z,5.60
2017-11-18T15:06:33.636Z,5.60
2017-11-18T15:08:59.584Z,5.70
2017-11-18T15:11:25.596Z,5.60
2017-11-18T15:13:51.611Z,5.60
2017-11-18T15:16:30.398Z,5.60
2017-11-18T15:19:01.312Z,5.60
2017-11-18T15:21:38.309Z,5.60
2017-11-18T15:24:11.113Z,5.60
2017-11-18T15:26:37.927Z,5.60
2017-11-18T15:29:07.657Z,5.70
2017-11-18T15:31:38.584Z,5.70
2017-11-18T15:34:20.358Z,5.60
2017-11-18T15:36:52.405Z,5.60
2017-11-18T15:39:18.460Z,5.60
2017-11-18T15:41:45.194Z,5.60
2017-11-18T15:44:21.263Z,5.60
2017-11-18T15:46:49.067Z,5.60
2017-11-18T15:49:22.062Z,5.60
2017-11-18T15:51:53.101Z,5.60
2017-11-18T15:57:30.389Z,5.70
2017-11-18T15:59:56.605Z,5.70
2017-11-18T16:02:26.492Z,5.70
2017-11-18T16:04:56.442Z,5.70
2017-11-18T16:07:24.344Z,5.70
2017-11-18T16:09:50.328Z,5.70
2017-11-18T16:12:16.330Z,5.60
2017-11-18T16:14:42.318Z,5.60
2017-11-18T16:17:10.468Z,5.60
2017-11-18T16:19:36.459Z,5.60
2017-11-18T16:22:02.423Z,5.60
2017-11-18T16:24:28.366Z,5.60
2017-11-18T16:26:54.339Z,5.60
2017-11-18T16:29:20.263Z,5.60
2017-11-18T16:31:46.232Z,5.60
2017-11-18T16:34:15.867Z,5.60
2017-11-18T16:36:42.596Z,5.70
2017-11-18T16:39:08.592Z,5.70
2017-11-18T16:41:34.547Z,5.70
2017-11-18T16:44:00.564Z,5.70
2017-11-18T16:46:26.601Z,5.60
2017-11-18T16:48:55.433Z,5.70
2017-11-18T16:51:21.945Z,5.60
2017-11-18T16:53:47.942Z,5.70
2017-11-18T16:56:13.903Z,5.70
2017-11-18T16:58:40.640Z,5.70
2017-11-18T17:01:06.628Z,5.70
2017-11-18T17:03:32.609Z,5.70
2017-11-18T17:06:00.677Z,5.70
2017-11-18T17:08:26.721Z,5.70
2017-11-18T17:10:52.708Z,5.70
2017-11-18T17:13:18.666Z,5.60
2017-11-18T17:15:45.392Z,5.50
2017-11-18T17:18:11.396Z,5.50
2017-11-18T17:20:37.348Z,5.50
2017-11-18T17:23:04.083Z,5.50
2017-11-18T17:25:30.097Z,5.50
2017-11-18T17:27:57.514Z,5.60
2017-11-18T17:30:23.468Z,5.60
2017-11-18T17:32:49.480Z,5.60
2017-11-18T17:35:16.178Z,5.60
2017-11-18T17:37:42.187Z,5.60
2017-11-18T17:40:08.176Z,5.60
2017-11-18T17:42:34.154Z,5.60
2017-11-18T17:45:00.331Z,5.60
2017-11-18T17:47:26.406Z,5.70
2017-11-18T17:49:52.392Z,5.70
2017-11-18T17:52:18.448Z,5.70
2017-11-18T17:54:44.433Z,5.70
2017-11-18T17:57:11.392Z,5.70
2017-11-18T17:59:38.100Z,5.60
2017-11-18T18:02:04.156Z,5.60
2017-11-18T18:04:30.136Z,5.60
2017-11-18T18:06:56.234Z,5.60
2017-11-18T18:09:22.319Z,5.60
2017-11-18T18:11:48.271Z,5.60
2017-11-18T18:14:14.279Z,5.60
2017-11-18T18:16:40.250Z,5.50
2017-11-18T18:19:09.306Z,5.40
2017-11-18T18:21:36.311Z,5.10
2017-11-18T18:24:02.307Z,5.10
2017-11-18T18:26:30.343Z,4.90
2017-11-18T18:28:56.353Z,4.90
2017-11-18T18:31:22.953Z,4.80
2017-11-18T18:33:48.990Z,4.80
2017-11-18T18:36:14.990Z,4.70
2017-11-18T18:38:40.992Z,4.70
2017-11-18T18:41:07.757Z,4.60
2017-11-18T18:43:33.808Z,4.60
2017-11-18T18:45:59.964Z,4.60
2017-11-18T18:48:26.007Z,4.60
2017-11-18T18:50:52.101Z,4.50
2017-11-18T18:53:18.200Z,4.50
2017-11-18T18:55:44.239Z,4.60
2017-11-18T18:58:10.212Z,4.40
2017-11-18T19:00:36.984Z,4.40
2017-11-18T19:03:03.051Z,4.40
2017-11-18T19:05:29.207Z,4.40
2017-11-18T19:07:55.322Z,4.30
2017-11-18T19:10:21.344Z,4.30
2017-11-18T19:12:48.188Z,4.20
2017-11-18T19:15:14.244Z,4.20
2017-11-18T19:17:40.959Z,4.20
2017-11-18T19:20:07.664Z,4.20
2017-11-18T19:22:34.395Z,4.20
2017-11-18T19:25:00.419Z,4.20
2017-11-18T19:27:26.412Z,4.20
2017-11-18T19:29:53.191Z,4.20
2017-11-18T19:32:19.935Z,4.20
2017-11-18T19:34:46.672Z,4.30
2017-11-18T19:37:12.663Z,4.30
2017-11-18T19:39:38.627Z,4.30
2017-11-18T19:42:04.620Z,4.30
2017-11-18T19:44:30.583Z,4.30
2017-11-18T19:46:56.592Z,4.30
2017-11-18T19:49:22.635Z,4.30
2017-11-18T19:51:49.367Z,4.30
2017-11-18T19:54:16.111Z,4.30
2017-11-18T19:56:42.801Z,4.30
2017-11-18T19:59:09.081Z,4.30
2017-11-18T20:01:35.059Z,4.30
2017-11-18T20:04:01.826Z,4.30
2017-11-18T20:06:27.830Z,4.30
2017-11-18T20:08:53.779Z,4.30
2017-11-18T20:11:20.524Z,4.30
2017-11-18T20:13:46.501Z,4.30
2017-11-18T20:16:14.680Z,4.40
2017-11-18T20:18:40.663Z,4.40
2017-11-18T20:21:07.669Z,4.40
2017-11-18T20:23:33.616Z,4.40
2017-11-18T20:25:59.602Z,4.50
2017-11-18T20:28:25.612Z,4.50
2017-11-18T20:30:51.555Z,4.50
2017-11-18T20:33:17.678Z,4.40
2017-11-18T20:35:43.660Z,4.40
2017-11-18T20:38:09.611Z,4.40
2017-11-18T20:40:36.332Z,4.40
2017-11-18T20:43:02.338Z,4.40
2017-11-18T20:45:28.293Z,4.40
2017-11-18T20:47:54.268Z,4.40
2017-11-18T20:50:22.425Z,4.50
2017-11-18T20:52:48.383Z,4.50
2017-11-18T20:55:16.725Z,4.50
2017-11-18T20:57:42.697Z,4.50
2017-11-18T21:00:08.892Z,4.50
2017-11-18T21:02:34.857Z,4.50
2017-11-18T21:05:00.872Z,4.50
2017-11-18T21:07:26.928Z,4.60
2017-11-18T21:09:52.896Z,4.50
2017-11-18T21:12:18.847Z,4.60
2017-11-18T21:14:44.848Z,4.50
2017-11-18T21:17:10.800Z,4.60
2017-11-18T21:19:36.755Z,4.60
2017-11-18T21:22:03.483Z,4.60
2017-11-18T21:24:29.479Z,4.70
2017-11-18T21:26:55.479Z,4.70
2017-11-18T21:29:21.445Z,4.70
2017-11-18T21:31:47.424Z,4.80
2017-11-18T21:34:13.423Z,4.80
2017-11-18T21:36:39.375Z,4.70
2017-11-18T21:39:05.586Z,4.80
2017-11-18T21:41:31.595Z,4.70
2017-11-18T21:43:58.305Z,4.70
2017-11-18T21:46:24.333Z,4.70
2017-11-18T21:48:50.328Z,4.60
2017-11-18T21:51:16.830Z,4.60
2017-11-18T21:53:42.820Z,4.60
2017-11-18T21:56:08.807Z,4.50
2017-11-18T21:58:34.767Z,4.50
2017-11-18T22:01:00.756Z,4.40
2017-11-18T22:03:26.820Z,4.40
2017-11-18T22:05:52.819Z,4.50
2017-11-18T22:08:18.861Z,4.50
2017-11-18T22:10:44.816Z,4.50
2017-11-18T22:13:10.804Z,4.50
2017-11-18T22:15:37.732Z,4.60
2017-11-18T22:18:03.771Z,4.50
2017-11-18T22:20:29.780Z,4.60
2017-11-18T22:22:55.893Z,4.70
2017-11-18T22:25:21.846Z,4.60
2017-11-18T22:27:47.787Z,4.70
2017-11-18T22:30:13.763Z,4.70
2017-11-18T22:32:41.465Z,4.70
2017-11-18T22:35:07.420Z,4.70
2017-11-18T22:37:33.403Z,4.80
2017-11-18T22:39:59.423Z,4.70
2017-11-18T22:42:25.420Z,4.60
2017-11-18T22:44:51.577Z,4.70
2017-11-18T22:47:17.532Z,4.60
2017-11-18T22:49:43.488Z,4.60
2017-11-18T22:52:10.469Z,4.60
2017-11-18T22:54:37.220Z,4.60
2017-11-18T22:57:03.950Z,4.60
2017-11-18T22:59:29.937Z,4.60
2017-11-18T23:01:55.986Z,4.70
2017-11-18T23:04:21.957Z,4.70
2017-11-18T23:06:48.028Z,4.70
2017-11-18T23:09:13.999Z,4.70
2017-11-18T23:11:39.947Z,4.70
2017-11-18T23:14:05.931Z,4.70
2017-11-18T23:16:32.626Z,4.70
2017-11-18T23:19:00.733Z,4.70
2017-11-18T23:21:26.755Z,4.80
2017-11-18T23:23:52.751Z,4.90
2017-11-18T23:26:18.755Z,4.90
2017-11-18T23:28:45.418Z,4.90
2017-11-18T23:31:11.449Z,4.90
2017-11-18T23:33:37.564Z,5.00
2017-11-18T23:36:03.548Z,5.00
2017-11-18T23:38:29.561Z,4.90
2017-11-18T23:40:56.332Z,4.90
2017-11-18T23:43:22.565Z,4.90
2017-11-18T23:45:48.680Z,4.90
2017-11-18T23:48:14.685Z,4.90
2017-11-18T23:50:40.699Z,4.80
2017-11-18T23:53:07.598Z,4.80
2017-11-18T23:55:33.588Z,4.80
2017-11-18T23:58:00.308Z,4.80
